createdAt,value
2022-11-09T00:01:42.995Z,11.82
2022-11-09T00:04:10.469Z,11.80
2022-11-09T00:06:37.579Z,11.86
2022-11-09T00:09:08.105Z,11.93
2022-11-09T00:11:38.440Z,11.96
2022-11-09T00:14:05.507Z,11.96
2022-11-09T00:16:32.622Z,11.95
2022-11-09T00:18:59.379Z,11.90
2022-11-09T00:21:26.107Z,11.89
2022-11-09T00:23:53.768Z,11.87
2022-11-09T00:26:21.392Z,11.82
2022-11-09T00:28:48.688Z,11.84
2022-11-09T00:31:21.057Z,11.88
2022-11-09T00:33:51.152Z,11.84
2022-11-09T00:36:19.163Z,11.77
2022-11-09T00:38:50.984Z,11.76
2022-11-09T00:41:18.425Z,11.74
2022-11-09T00:43:46.882Z,11.70
2022-11-09T00:46:14.375Z,11.69
2022-11-09T00:48:41.239Z,11.69
2022-11-09T00:51:09.361Z,11.71
2022-11-09T00:53:36.124Z,11.74
2022-11-09T00:56:09.728Z,11.72
2022-11-09T00:58:38.205Z,11.72
2022-11-09T01:01:16.549Z,11.72
2022-11-09T01:03:44.954Z,11.69
2022-11-09T01:06:20.718Z,11.66
2022-11-09T01:08:48.431Z,11.66
2022-11-09T01:11:17.668Z,11.72
2022-11-09T01:13:45.365Z,11.78
2022-11-09T01:16:14.921Z,11.85
2022-11-09T01:18:42.692Z,11.92
2022-11-09T01:21:13.193Z,11.97
2022-11-09T01:23:40.981Z,11.98
2022-11-09T01:26:13.361Z,11.98
2022-11-09T01:28:40.873Z,11.98
2022-11-09T01:31:13.906Z,11.95
2022-11-09T01:33:41.463Z,11.94
2022-11-09T01:36:14.551Z,11.86
2022-11-09T01:38:41.651Z,11.79
2022-11-09T01:41:11.875Z,11.73
2022-11-09T01:43:38.738Z,11.71
2022-11-09T01:46:14.889Z,11.69
2022-11-09T01:48:47.239Z,11.74
2022-11-09T01:51:37.347Z,11.81
2022-11-09T01:54:12.494Z,11.86
2022-11-09T01:56:40.544Z,11.89
2022-11-09T01:59:13.866Z,11.92
2022-11-09T02:01:42.848Z,11.90
2022-11-09T02:04:22.981Z,11.89
2022-11-09T02:06:50.591Z,11.80
2022-11-09T02:09:27.383Z,11.77
2022-11-09T02:11:54.223Z,11.73
2022-11-09T02:14:23.801Z,11.73
2022-11-09T02:16:50.537Z,11.74
2022-11-09T02:19:17.296Z,11.76
2022-11-09T02:21:44.257Z,11.78
2022-11-09T02:24:11.056Z,11.76
2022-11-09T02:26:47.579Z,11.73
2022-11-09T02:29:18.740Z,11.69
2022-11-09T02:31:51.001Z,11.65
2022-11-09T02:34:20.353Z,11.66
2022-11-09T02:36:47.977Z,11.57
2022-11-09T02:39:18.000Z,11.46
2022-11-09T02:41:55.460Z,11.37
2022-11-09T02:44:23.482Z,11.26
2022-11-09T02:46:50.226Z,11.29
2022-11-09T02:49:17.507Z,11.22
2022-11-09T02:51:44.462Z,11.23
2022-11-09T02:54:11.210Z,11.26
2022-11-09T02:56:37.989Z,11.33
2022-11-09T02:59:04.738Z,11.32
2022-11-09T03:01:31.827Z,11.31
2022-11-09T03:03:58.634Z,11.27
2022-11-09T03:06:34.553Z,11.29
2022-11-09T03:09:06.368Z,11.23
2022-11-09T03:11:33.520Z,11.21
2022-11-09T03:14:00.233Z,11.25
2022-11-09T03:16:27.128Z,11.30
2022-11-09T03:18:54.195Z,11.28
2022-11-09T03:21:24.452Z,11.22
2022-11-09T03:23:51.934Z,11.16
2022-11-09T03:26:18.622Z,11.13
2022-11-09T03:28:45.375Z,11.13
2022-11-09T03:31:12.776Z,11.13
2022-11-09T03:33:39.766Z,11.12
2022-11-09T03:36:07.156Z,11.11
2022-11-09T03:38:33.899Z,11.12
2022-11-09T03:41:01.844Z,11.14
2022-11-09T03:43:29.639Z,11.15
2022-11-09T03:45:56.498Z,11.14
2022-11-09T03:48:23.764Z,11.15
2022-11-09T03:50:50.751Z,11.10
2022-11-09T03:53:17.786Z,11.09
2022-11-09T03:55:45.426Z,11.07
2022-11-09T03:58:13.188Z,11.06
2022-11-09T04:00:40.370Z,11.08
2022-11-09T04:03:07.129Z,11.08
2022-11-09T04:05:33.915Z,11.06
2022-11-09T04:08:00.678Z,11.05
2022-11-09T04:10:27.719Z,11.08
2022-11-09T04:12:54.723Z,11.09
2022-11-09T04:15:21.845Z,11.07
2022-11-09T04:17:56.469Z,11.10
2022-11-09T04:20:23.536Z,11.10
2022-11-09T04:22:57.150Z,11.07
2022-11-09T04:25:25.843Z,11.05
2022-11-09T04:27:59.715Z,10.96
2022-11-09T04:30:28.018Z,10.93
2022-11-09T04:32:56.393Z,10.92
2022-11-09T04:35:23.939Z,10.95
2022-11-09T04:38:02.181Z,10.93
2022-11-09T04:40:30.694Z,10.91
2022-11-09T04:43:02.251Z,10.97
2022-11-09T04:45:29.150Z,11.06
2022-11-09T04:48:03.054Z,11.10
2022-11-09T04:50:30.398Z,11.09
2022-11-09T04:53:12.220Z,11.11
2022-11-09T04:55:40.106Z,11.12
2022-11-09T04:58:07.715Z,11.09
2022-11-09T05:00:34.739Z,11.07
2022-11-09T05:03:03.603Z,11.11
2022-11-09T05:05:32.251Z,11.16
2022-11-09T05:07:58.987Z,11.20
2022-11-09T05:10:25.688Z,11.23
2022-11-09T05:12:58.129Z,11.22
2022-11-09T05:15:25.516Z,11.16
2022-11-09T05:17:52.292Z,11.08
2022-11-09T05:20:19.382Z,11.08
2022-11-09T05:23:04.752Z,11.05
2022-11-09T05:25:31.503Z,11.04
2022-11-09T05:27:59.278Z,11.08
2022-11-09T05:30:26.197Z,11.11
2022-11-09T05:32:53.092Z,11.14
2022-11-09T05:35:19.880Z,11.15
2022-11-09T05:37:48.575Z,11.17
2022-11-09T05:40:17.425Z,11.18
2022-11-09T05:42:44.790Z,11.17
2022-11-09T05:45:40.767Z,11.23
2022-11-09T05:48:03.799Z,11.27
2022-11-09T05:50:30.642Z,11.29
2022-11-09T05:53:01.996Z,11.30
2022-11-09T05:55:28.747Z,11.31
2022-11-09T05:57:56.185Z,11.31
2022-11-09T06:00:23.141Z,11.31
2022-11-09T06:02:51.253Z,11.35
2022-11-09T06:05:18.146Z,11.37
2022-11-09T06:07:44.880Z,11.34
2022-11-09T06:10:11.779Z,11.41
2022-11-09T06:12:38.596Z,11.50
2022-11-09T06:15:06.129Z,11.52
2022-11-09T06:17:32.856Z,11.48
2022-11-09T06:19:59.558Z,11.44
2022-11-09T06:22:26.245Z,11.40
2022-11-09T06:24:52.909Z,11.40
2022-11-09T06:27:19.611Z,11.41
2022-11-09T06:29:46.259Z,11.44
2022-11-09T06:32:12.983Z,11.46
2022-11-09T06:34:39.707Z,11.48
2022-11-09T06:37:06.397Z,11.47
2022-11-09T06:39:33.242Z,11.47
2022-11-09T06:42:00.842Z,11.44
2022-11-09T06:44:27.560Z,11.42
2022-11-09T06:46:54.271Z,11.39
2022-11-09T06:49:20.983Z,11.38
2022-11-09T06:51:47.676Z,11.30
2022-11-09T06:54:14.370Z,11.31
2022-11-09T06:56:41.020Z,11.31
2022-11-09T06:59:08.792Z,11.25
2022-11-09T07:01:37.387Z,11.28
2022-11-09T07:04:04.257Z,11.30
2022-11-09T07:06:31.134Z,11.33
2022-11-09T07:08:57.876Z,11.34
2022-11-09T07:11:24.528Z,11.32
2022-11-09T07:13:56.201Z,11.34
2022-11-09T07:16:24.228Z,11.32
2022-11-09T07:18:50.937Z,11.37
2022-11-09T07:21:17.641Z,11.38
2022-11-09T07:23:46.620Z,11.41
2022-11-09T07:26:13.566Z,11.40
2022-11-09T07:28:41.020Z,11.42
2022-11-09T07:31:09.042Z,11.39
2022-11-09T07:33:35.990Z,11.39
2022-11-09T07:36:05.404Z,11.39
2022-11-09T07:38:32.409Z,11.44
2022-11-09T07:41:00.456Z,11.48
2022-11-09T07:43:28.588Z,11.52
2022-11-09T07:45:55.817Z,11.54
2022-11-09T07:48:22.596Z,11.54
2022-11-09T07:50:49.339Z,11.51
2022-11-09T07:53:16.871Z,11.49
2022-11-09T07:55:44.446Z,11.50
2022-11-09T07:58:13.986Z,11.54
2022-11-09T08:00:41.966Z,11.55
2022-11-09T08:03:10.226Z,11.60
2022-11-09T08:05:37.478Z,11.61
2022-11-09T08:08:07.325Z,11.64
2022-11-09T08:10:35.668Z,11.68
2022-11-09T08:13:05.319Z,11.71
2022-11-09T08:15:33.586Z,11.73
2022-11-09T08:18:06.333Z,11.76
2022-11-09T08:20:34.328Z,11.79
2022-11-09T08:23:04.579Z,11.84
2022-11-09T08:25:35.469Z,11.87
2022-11-09T08:28:03.410Z,11.92
2022-11-09T08:30:30.847Z,11.94
2022-11-09T08:32:59.765Z,11.98
2022-11-09T08:35:27.605Z,12.02
2022-11-09T08:37:54.755Z,12.03
2022-11-09T08:40:24.531Z,12.05
2022-11-09T08:42:52.687Z,12.10
2022-11-09T08:45:19.808Z,12.12
2022-11-09T08:47:46.878Z,12.19
2022-11-09T08:50:15.089Z,12.33
2022-11-09T08:52:42.755Z,12.36
2022-11-09T08:55:09.571Z,12.39
2022-11-09T08:57:36.440Z,12.43
2022-11-09T09:00:04.731Z,12.57
2022-11-09T09:02:31.508Z,12.63
2022-11-09T09:04:58.293Z,12.57
2022-11-09T09:07:25.133Z,12.65
2022-11-09T09:09:52.033Z,12.76
2022-11-09T09:12:18.976Z,12.81
2022-11-09T09:14:45.789Z,12.95
2022-11-09T09:17:13.008Z,13.01
2022-11-09T09:19:39.771Z,13.01
2022-11-09T09:22:06.548Z,13.01
2022-11-09T09:24:33.284Z,13.07
2022-11-09T09:26:59.989Z,13.08
2022-11-09T09:29:26.773Z,13.09
2022-11-09T09:31:53.481Z,13.15
2022-11-09T09:34:20.251Z,13.31
2022-11-09T09:36:48.456Z,13.35
2022-11-09T09:39:15.720Z,13.33
2022-11-09T09:41:51.061Z,13.39
2022-11-09T09:44:33.476Z,13.50
2022-11-09T09:47:13.778Z,13.70
2022-11-09T09:49:45.749Z,13.69
2022-11-09T09:52:21.248Z,13.68
2022-11-09T09:55:00.266Z,13.72
2022-11-09T09:57:29.931Z,13.93
2022-11-09T10:00:01.822Z,13.96
2022-11-09T10:02:30.707Z,13.94
2022-11-09T10:05:00.601Z,13.98
2022-11-09T10:07:38.080Z,14.00
2022-11-09T10:10:20.198Z,14.01
2022-11-09T10:13:11.634Z,14.01
2022-11-09T10:16:16.196Z,14.04
2022-11-09T10:19:12.435Z,14.09
2022-11-09T10:21:49.985Z,14.20
2022-11-09T10:24:31.943Z,14.28
2022-11-09T10:27:00.376Z,14.25
2022-11-09T10:29:43.391Z,14.24
2022-11-09T10:32:16.018Z,14.29
2022-11-09T10:35:08.977Z,14.35
2022-11-09T10:37:41.740Z,14.41
2022-11-09T10:40:08.540Z,14.48
2022-11-09T10:42:35.587Z,14.56
2022-11-09T10:45:25.488Z,14.45
2022-11-09T10:47:52.844Z,14.53
2022-11-09T10:50:37.654Z,14.50
2022-11-09T10:53:18.049Z,14.46
2022-11-09T10:56:09.991Z,14.38
2022-11-09T10:58:48.889Z,14.46
2022-11-09T11:01:19.188Z,14.43
2022-11-09T11:03:50.196Z,14.47
2022-11-09T11:06:22.847Z,14.54
2022-11-09T11:09:12.605Z,14.52
2022-11-09T11:11:40.132Z,14.62
2022-11-09T11:14:19.950Z,14.66
2022-11-09T11:16:48.573Z,14.71
2022-11-09T11:19:27.402Z,14.59
2022-11-09T11:22:24.669Z,14.56
2022-11-09T11:24:57.610Z,14.59
2022-11-09T11:27:36.056Z,14.57
2022-11-09T11:30:10.484Z,14.66
2022-11-09T11:32:37.217Z,14.69
2022-11-09T11:35:36.314Z,14.70
2022-11-09T11:38:21.562Z,14.79
2022-11-09T11:41:06.896Z,14.93
2022-11-09T11:43:56.771Z,15.00
2022-11-09T11:46:48.715Z,15.04
2022-11-09T11:49:42.890Z,15.00
2022-11-09T11:52:28.375Z,15.01
2022-11-09T11:55:21.965Z,14.95
2022-11-09T11:58:12.074Z,14.92
2022-11-09T12:01:03.574Z,14.85
2022-11-09T12:03:36.301Z,14.81
2022-11-09T12:06:31.162Z,14.83
2022-11-09T12:09:19.487Z,14.79
2022-11-09T12:12:13.424Z,14.83
2022-11-09T12:15:02.458Z,14.86
2022-11-09T12:17:44.308Z,14.89
2022-11-09T12:20:44.877Z,14.87
2022-11-09T12:23:21.142Z,14.89
2022-11-09T12:26:14.448Z,14.87
2022-11-09T12:29:05.520Z,14.88
2022-11-09T12:31:46.233Z,14.84
2022-11-09T12:34:23.387Z,14.85
2022-11-09T12:37:02.477Z,14.83
2022-11-09T12:39:36.208Z,14.79
2022-11-09T12:42:13.269Z,14.76
2022-11-09T12:44:47.021Z,14.75
2022-11-09T12:47:21.968Z,14.75
2022-11-09T12:49:49.096Z,14.74
2022-11-09T12:52:20.425Z,14.76
2022-11-09T12:54:49.803Z,14.76
2022-11-09T12:57:26.047Z,14.79
2022-11-09T13:00:21.706Z,14.77
2022-11-09T13:02:57.556Z,14.80
2022-11-09T13:05:35.334Z,14.81
2022-11-09T13:08:05.775Z,14.76
2022-11-09T13:10:35.095Z,14.77
2022-11-09T13:13:23.798Z,14.81
2022-11-09T13:16:09.021Z,14.82
2022-11-09T13:18:36.576Z,14.83
2022-11-09T13:21:23.698Z,14.82
2022-11-09T13:24:02.077Z,14.77
2022-11-09T13:26:33.579Z,14.79
2022-11-09T13:29:09.878Z,14.78
2022-11-09T13:32:01.545Z,14.76
2022-11-09T13:34:47.086Z,14.74
2022-11-09T13:37:36.718Z,14.72
2022-11-09T13:40:31.642Z,14.68
2022-11-09T13:43:09.798Z,14.69
2022-11-09T13:45:47.076Z,14.77
2022-11-09T13:48:41.185Z,14.83
2022-11-09T13:51:18.504Z,14.84
2022-11-09T13:53:59.763Z,14.87
2022-11-09T13:56:42.061Z,14.89
2022-11-09T13:59:23.711Z,14.85
2022-11-09T14:01:56.535Z,14.81
2022-11-09T14:04:33.778Z,14.75
2022-11-09T14:07:05.743Z,14.70
2022-11-09T14:09:55.537Z,14.65
2022-11-09T14:12:42.027Z,14.61
2022-11-09T14:15:30.661Z,14.61
2022-11-09T14:18:05.313Z,14.62
2022-11-09T14:20:40.567Z,14.60
2022-11-09T14:23:23.964Z,14.60
2022-11-09T14:25:50.711Z,14.59
2022-11-09T14:28:27.701Z,14.57
2022-11-09T14:30:55.655Z,14.56
2022-11-09T14:33:27.924Z,14.54
2022-11-09T14:35:57.714Z,14.52
2022-11-09T14:38:29.425Z,14.50
2022-11-09T14:40:56.196Z,14.48
2022-11-09T14:43:45.979Z,14.47
2022-11-09T14:46:17.979Z,14.46
2022-11-09T14:48:54.084Z,14.42
2022-11-09T14:51:23.033Z,14.41
2022-11-09T14:53:50.688Z,14.39
2022-11-09T14:56:20.226Z,14.38
2022-11-09T14:58:49.755Z,14.34
2022-11-09T15:01:20.279Z,14.33
2022-11-09T15:04:11.486Z,14.29
2022-11-09T15:06:51.046Z,14.26
2022-11-09T15:09:33.553Z,14.22
2022-11-09T15:12:01.209Z,14.17
2022-11-09T15:14:34.413Z,14.14
2022-11-09T15:17:10.830Z,14.15
2022-11-09T15:19:47.780Z,14.11
2022-11-09T15:22:42.701Z,14.09
2022-11-09T15:25:30.007Z,14.08
2022-11-09T15:28:01.189Z,14.06
2022-11-09T15:30:33.522Z,14.02
2022-11-09T15:33:01.004Z,13.99
2022-11-09T15:35:28.144Z,13.93
2022-11-09T15:37:55.852Z,13.85
2022-11-09T15:40:24.912Z,13.81
2022-11-09T15:42:51.756Z,13.78
2022-11-09T15:45:20.401Z,13.69
2022-11-09T15:47:54.547Z,13.65
2022-11-09T15:50:25.342Z,13.52
2022-11-09T15:52:52.511Z,13.49
2022-11-09T15:55:22.049Z,13.51
2022-11-09T15:57:52.376Z,13.49
2022-11-09T16:00:21.612Z,13.47
2022-11-09T16:02:49.084Z,13.47
2022-11-09T16:05:16.365Z,13.47
2022-11-09T16:07:51.280Z,13.48
2022-11-09T16:10:20.377Z,13.50
2022-11-09T16:12:47.173Z,13.48
2022-11-09T16:15:13.934Z,13.44
2022-11-09T16:17:40.760Z,13.42
2022-11-09T16:20:07.905Z,13.42
2022-11-09T16:22:34.724Z,13.40
2022-11-09T16:25:01.930Z,13.39
2022-11-09T16:27:49.194Z,13.34
2022-11-09T16:30:16.583Z,13.26
2022-11-09T16:32:43.345Z,13.20
2022-11-09T16:35:27.598Z,13.26
2022-11-09T16:37:56.195Z,13.30
2022-11-09T16:40:23.431Z,13.32
2022-11-09T16:42:51.723Z,13.31
2022-11-09T16:45:18.750Z,13.27
2022-11-09T16:47:50.957Z,13.27
2022-11-09T16:50:18.002Z,13.28
2022-11-09T16:52:45.076Z,13.28
2022-11-09T16:55:11.812Z,13.31
2022-11-09T16:57:38.596Z,13.33
2022-11-09T17:00:06.977Z,13.36
2022-11-09T17:02:34.676Z,13.36
2022-11-09T17:05:01.516Z,13.33
2022-11-09T17:07:28.518Z,13.30
2022-11-09T17:09:55.478Z,13.19
2022-11-09T17:12:22.235Z,13.10
2022-11-09T17:14:49.020Z,13.14
2022-11-09T17:17:21.180Z,13.15
2022-11-09T17:19:49.749Z,12.97
2022-11-09T17:22:17.032Z,12.91
2022-11-09T17:24:43.822Z,12.96
2022-11-09T17:27:11.977Z,13.02
2022-11-09T17:29:39.326Z,12.84
2022-11-09T17:32:08.238Z,12.82
2022-11-09T17:34:35.027Z,12.78
2022-11-09T17:37:04.774Z,12.77
2022-11-09T17:39:33.621Z,12.70
2022-11-09T17:42:00.316Z,12.72
2022-11-09T17:44:27.167Z,12.70
2022-11-09T17:46:53.882Z,12.75
2022-11-09T17:49:20.570Z,12.71
2022-11-09T17:51:47.292Z,12.64
2022-11-09T17:54:14.866Z,12.54
2022-11-09T17:56:42.030Z,12.50
2022-11-09T17:59:08.972Z,12.55
2022-11-09T18:01:41.620Z,12.62
2022-11-09T18:04:10.883Z,12.57
2022-11-09T18:06:37.944Z,12.56
2022-11-09T18:09:40.425Z,12.57
2022-11-09T18:11:51.946Z,12.63
2022-11-09T18:14:18.681Z,12.65
2022-11-09T18:16:45.636Z,12.68
2022-11-09T18:19:12.403Z,12.66
2022-11-09T18:21:39.269Z,12.60
2022-11-09T18:24:06.416Z,12.57
2022-11-09T18:26:33.178Z,12.55
2022-11-09T18:29:00.449Z,12.55
2022-11-09T18:31:27.915Z,12.53
2022-11-09T18:33:54.878Z,12.54
2022-11-09T18:36:23.322Z,12.51
2022-11-09T18:38:51.979Z,12.53
2022-11-09T18:41:21.930Z,12.54
2022-11-09T18:43:50.455Z,12.60
2022-11-09T18:46:18.930Z,12.54
2022-11-09T18:48:49.679Z,12.45
2022-11-09T18:51:16.487Z,12.40
2022-11-09T18:53:45.328Z,12.37
2022-11-09T18:56:21.412Z,12.36
2022-11-09T18:58:50.050Z,12.39
2022-11-09T19:01:17.436Z,12.43
2022-11-09T19:03:44.661Z,12.42
2022-11-09T19:06:14.984Z,12.42
2022-11-09T19:09:08.401Z,12.40
2022-11-09T19:11:38.435Z,12.41
2022-11-09T19:14:05.229Z,12.43
2022-11-09T19:16:32.452Z,12.49
2022-11-09T19:19:01.485Z,12.46
2022-11-09T19:21:38.761Z,12.42
2022-11-09T19:24:06.575Z,12.38
2022-11-09T19:26:35.039Z,12.34
2022-11-09T19:29:01.918Z,12.34
2022-11-09T19:31:28.939Z,12.36
2022-11-09T19:33:56.187Z,12.36
2022-11-09T19:36:31.014Z,12.40
2022-11-09T19:38:58.590Z,12.43
2022-11-09T19:41:25.904Z,12.50
2022-11-09T19:43:55.576Z,12.51
2022-11-09T19:46:22.399Z,12.59
2022-11-09T19:48:49.083Z,12.65
2022-11-09T19:51:16.966Z,12.62
2022-11-09T19:53:55.131Z,12.60
2022-11-09T19:56:24.469Z,12.55
2022-11-09T19:58:54.178Z,12.51
2022-11-09T20:01:21.873Z,12.48
2022-11-09T20:03:53.804Z,12.45
2022-11-09T20:06:21.745Z,12.43
2022-11-09T20:08:49.204Z,12.45
2022-11-09T20:11:37.244Z,12.43
2022-11-09T20:14:05.775Z,12.43
2022-11-09T20:16:34.196Z,12.44
2022-11-09T20:19:02.853Z,12.45
2022-11-09T20:21:29.522Z,12.43
2022-11-09T20:23:56.671Z,12.41
2022-11-09T20:26:23.682Z,12.36
2022-11-09T20:28:52.529Z,12.36
2022-11-09T20:31:23.355Z,12.34
2022-11-09T20:33:50.707Z,12.34
2022-11-09T20:36:18.884Z,12.35
2022-11-09T20:38:47.009Z,12.35
2022-11-09T20:41:14.078Z,12.37
2022-11-09T20:43:41.162Z,12.37
2022-11-09T20:46:14.066Z,12.36
2022-11-09T20:48:54.047Z,12.39
2022-11-09T20:51:23.777Z,12.37
2022-11-09T20:53:51.139Z,12.32
2022-11-09T20:56:19.227Z,12.28
2022-11-09T20:58:46.312Z,12.24
2022-11-09T21:01:21.887Z,12.25
2022-11-09T21:03:50.780Z,12.21
2022-11-09T21:06:18.601Z,12.24
2022-11-09T21:08:47.038Z,12.23
2022-11-09T21:11:13.767Z,12.22
2022-11-09T21:13:41.929Z,12.21
2022-11-09T21:16:12.477Z,12.19
2022-11-09T21:18:39.750Z,12.17
2022-11-09T21:21:11.598Z,12.13
2022-11-09T21:23:57.487Z,12.10
2022-11-09T21:26:43.046Z,12.10
2022-11-09T21:29:30.598Z,12.08
2022-11-09T21:31:57.609Z,12.11
2022-11-09T21:34:24.402Z,12.09
2022-11-09T21:36:51.155Z,12.08
2022-11-09T21:39:17.898Z,12.09
2022-11-09T21:41:44.695Z,12.07
2022-11-09T21:44:12.017Z,12.09
2022-11-09T21:46:40.609Z,12.11
2022-11-09T21:49:08.617Z,12.08
2022-11-09T21:51:37.182Z,12.04
2022-11-09T21:54:05.533Z,12.02
2022-11-09T21:56:33.071Z,11.98
2022-11-09T21:58:59.759Z,11.96
2022-11-09T22:01:26.797Z,11.94
2022-11-09T22:03:53.555Z,11.92
2022-11-09T22:06:20.824Z,11.89
2022-11-09T22:08:47.500Z,11.86
2022-11-09T22:11:15.648Z,11.80
2022-11-09T22:14:01.648Z,11.80
2022-11-09T22:16:31.442Z,11.78
2022-11-09T22:19:16.986Z,11.71
2022-11-09T22:21:43.664Z,11.65
2022-11-09T22:24:11.925Z,11.65
2022-11-09T22:26:38.623Z,11.65
2022-11-09T22:29:05.364Z,11.66
2022-11-09T22:31:32.075Z,11.68
2022-11-09T22:33:58.822Z,11.65
2022-11-09T22:36:25.531Z,11.61
2022-11-09T22:38:52.242Z,11.53
2022-11-09T22:41:19.510Z,11.51
2022-11-09T22:43:46.188Z,11.47
2022-11-09T22:46:15.233Z,11.51
2022-11-09T22:48:43.870Z,11.52
2022-11-09T22:51:12.677Z,11.58
2022-11-09T22:53:39.538Z,11.61
2022-11-09T22:56:07.474Z,11.59
2022-11-09T22:58:34.161Z,11.62
2022-11-09T23:01:10.867Z,11.66
2022-11-09T23:03:38.000Z,11.64
2022-11-09T23:06:16.392Z,11.63
2022-11-09T23:08:43.103Z,11.67
2022-11-09T23:11:18.123Z,11.69
2022-11-09T23:13:48.396Z,11.70
2022-11-09T23:16:15.224Z,11.72
2022-11-09T23:18:53.667Z,11.72
2022-11-09T23:21:20.354Z,11.72
2022-11-09T23:23:47.996Z,11.72
2022-11-09T23:26:15.162Z,11.69
2022-11-09T23:28:41.885Z,11.67
2022-11-09T23:31:11.835Z,11.69
2022-11-09T23:33:38.701Z,11.67
2022-11-09T23:36:07.535Z,11.68
2022-11-09T23:38:36.005Z,11.76
2022-11-09T23:41:04.971Z,11.76
2022-11-09T23:43:31.690Z,11.71
2022-11-09T23:46:04.064Z,11.73
2022-11-09T23:48:30.838Z,11.73
2022-11-09T23:50:59.322Z,11.74
2022-11-09T23:53:27.662Z,11.74
2022-11-09T23:55:55.162Z,11.76
2022-11-09T23:58:21.884Z,11.75
